createdAt,value
2017-04-18T00:00:57.100Z,33.98
2017-04-18T00:02:07.355Z,33.98
2017-04-18T00:03:17.607Z,34.17
2017-04-18T00:04:27.864Z,33.69
2017-04-18T00:05:37.806Z,33.79
2017-04-18T00:06:47.741Z,33.79
2017-04-18T00:07:57.996Z,33.79
2017-04-18T00:09:08.250Z,33.89
2017-04-18T00:10:18.505Z,33.59
2017-04-18T00:11:28.945Z,33.5
2017-04-18T00:12:38.575Z,33.89
2017-04-18T00:13:48.827Z,33.59
2017-04-18T00:14:59.301Z,33.79
2017-04-18T00:16:09.551Z,33.79
2017-04-18T00:17:19.749Z,33.89
2017-04-18T00:18:29.690Z,33.79
2017-04-18T00:19:39.946Z,33.69
2017-04-18T00:20:49.889Z,33.59
2017-04-18T00:22:00.141Z,33.59
2017-04-18T00:23:10.391Z,33.59
2017-04-18T00:24:20.362Z,33.4
2017-04-18T00:25:30.299Z,33.69
2017-04-18T00:26:40.556Z,33.59
2017-04-18T00:27:50.493Z,33.31
2017-04-18T00:29:00.751Z,33.31
2017-04-18T00:30:10.694Z,33.69
2017-04-18T00:31:20.943Z,33.5
2017-04-18T00:32:31.197Z,33.4
2017-04-18T00:33:41.136Z,33.5
2017-04-18T00:34:51.076Z,33.79
2017-04-18T00:36:01.331Z,33.31
2017-04-18T00:37:10.962Z,33.5
2017-04-18T00:38:20.900Z,33.59
2017-04-18T00:39:30.846Z,33.31
2017-04-18T00:40:41.098Z,33.31
2017-04-18T00:41:50.721Z,33.4
2017-04-18T00:43:00.662Z,33.31
2017-04-18T00:44:10.602Z,33.59
2017-04-18T00:45:20.545Z,33.31
2017-04-18T00:46:30.797Z,33.4
2017-04-18T00:47:40.755Z,33.31
2017-04-18T00:48:50.698Z,33.31
2017-04-18T00:50:00.954Z,33.5
2017-04-18T00:51:10.954Z,33.21
2017-04-18T00:52:21.433Z,33.69
2017-04-18T00:53:31.873Z,33.59
2017-04-18T00:54:41.812Z,33.59
2017-04-18T00:55:52.065Z,33.59
2017-04-18T00:57:02.319Z,33.31
2017-04-18T00:58:12.258Z,33.31
2017-04-18T00:59:22.544Z,33.4
2017-04-18T01:00:32.798Z,33.59
2017-04-18T01:01:43.050Z,33.4
2017-04-18T01:02:53.306Z,33.21
2017-04-18T01:04:03.575Z,33.5
2017-04-18T01:05:13.843Z,33.21
2017-04-18T01:06:24.096Z,33.21
2017-04-18T01:07:34.036Z,33.31
2017-04-18T01:08:44.290Z,33.21
2017-04-18T01:09:54.546Z,33.21
2017-04-18T01:11:04.493Z,33.5
2017-04-18T01:12:14.433Z,33.69
2017-04-18T01:13:24.695Z,33.31
2017-04-18T01:14:34.945Z,33.69
2017-04-18T01:15:44.884Z,33.31
2017-04-18T01:16:55.149Z,33.5
2017-04-18T01:18:05.085Z,33.5
2017-04-18T01:19:15.029Z,33.69
2017-04-18T01:20:24.654Z,33.89
2017-04-18T01:21:34.908Z,33.69
2017-04-18T01:22:45.156Z,33.4
2017-04-18T01:23:55.102Z,33.21
2017-04-18T01:25:05.047Z,33.4
2017-04-18T01:26:14.987Z,33.21
2017-04-18T01:27:25.174Z,33.21
2017-04-18T01:28:35.766Z,33.4
2017-04-18T01:29:45.739Z,33.4
2017-04-18T01:30:56.087Z,33.31
2017-04-18T01:32:06.571Z,33.31
2017-04-18T01:33:16.505Z,33.31
2017-04-18T01:34:26.756Z,33.21
2017-04-18T01:35:36.690Z,33.21
2017-04-18T01:36:46.940Z,33.4
2017-04-18T01:37:56.882Z,33.21
2017-04-18T01:39:07.140Z,33.31
2017-04-18T01:40:17.409Z,33.4
2017-04-18T01:41:27.668Z,33.21
2017-04-18T01:42:37.608Z,33.4
2017-04-18T01:43:47.559Z,33.4
2017-04-18T01:44:57.804Z,33.31
2017-04-18T01:46:07.733Z,33.21
2017-04-18T01:47:17.352Z,33.4
2017-04-18T01:48:26.967Z,33.21
2017-04-18T01:49:37.211Z,33.12
2017-04-18T01:50:47.454Z,33.12
2017-04-18T01:51:57.378Z,33.21
2017-04-18T01:53:07.621Z,33.31
2017-04-18T01:54:17.864Z,33.12
2017-04-18T01:55:28.108Z,33.31
2017-04-18T01:56:38.043Z,33.31
2017-04-18T01:57:47.981Z,33.21
2017-04-18T01:58:58.223Z,33.12
2017-04-18T02:00:08.467Z,33.4
2017-04-18T02:01:17.770Z,33.31
2017-04-18T02:02:27.706Z,33.21
2017-04-18T02:03:37.946Z,33.5
2017-04-18T02:04:47.561Z,33.4
2017-04-18T02:05:57.479Z,33.5
2017-04-18T02:07:08.007Z,33.5
2017-04-18T02:08:18.251Z,33.4
2017-04-18T02:09:28.487Z,33.4
2017-04-18T02:10:38.102Z,33.12
2017-04-18T02:11:48.473Z,33.12
2017-04-18T02:12:58.721Z,33.02
2017-04-18T02:14:08.885Z,32.92
2017-04-18T02:15:18.815Z,33.31
2017-04-18T02:16:28.735Z,33.5
2017-04-18T02:17:38.664Z,32.92
2017-04-18T02:18:48.597Z,33.4
2017-04-18T02:19:58.220Z,32.82
2017-04-18T02:21:08.183Z,33.12
2017-04-18T02:22:18.417Z,33.02
2017-04-18T02:23:28.660Z,33.12
2017-04-18T02:24:38.899Z,33.12
2017-04-18T02:25:49.151Z,33.12
2017-04-18T02:26:59.086Z,33.12
2017-04-18T02:28:09.024Z,32.92
2017-04-18T02:29:18.634Z,33.12
2017-04-18T02:30:28.883Z,32.92
2017-04-18T02:31:38.815Z,32.64
2017-04-18T02:32:49.093Z,33.02
2017-04-18T02:33:59.329Z,32.82
2017-04-18T02:35:09.579Z,32.92
2017-04-18T02:36:19.506Z,32.92
2017-04-18T02:37:29.747Z,32.92
2017-04-18T02:38:39.680Z,32.92
2017-04-18T02:39:49.617Z,32.92
2017-04-18T02:40:59.573Z,32.92
2017-04-18T02:42:09.497Z,33.31
2017-04-18T02:43:19.740Z,33.21
2017-04-18T02:44:29.660Z,33.4
2017-04-18T02:45:39.591Z,33.4
2017-04-18T02:46:49.828Z,33.31
2017-04-18T02:48:00.071Z,33.02
2017-04-18T02:49:10.334Z,33.12
2017-04-18T02:50:20.576Z,33.21
2017-04-18T02:51:30.817Z,32.92
2017-04-18T02:52:40.760Z,32.82
2017-04-18T02:53:50.692Z,32.92
2017-04-18T02:55:00.939Z,32.54
2017-04-18T02:56:11.178Z,32.54
2017-04-18T02:57:21.636Z,32.64
2017-04-18T02:58:31.251Z,32.15
2017-04-18T02:59:41.192Z,32.15
2017-04-18T03:00:51.444Z,32.15
2017-04-18T03:02:01.678Z,32.34
2017-04-18T03:03:11.925Z,32.06
2017-04-18T03:04:21.860Z,32.06
2017-04-18T03:05:31.785Z,32.15
2017-04-18T03:06:42.030Z,32.34
2017-04-18T03:07:52.271Z,32.34
2017-04-18T03:09:02.511Z,31.87
2017-04-18T03:10:12.438Z,32.15
2017-04-18T03:11:22.361Z,32.34
2017-04-18T03:12:32.604Z,32.25
2017-04-18T03:13:42.868Z,32.34
2017-04-18T03:14:53.121Z,32.06
2017-04-18T03:16:03.361Z,31.87
2017-04-18T03:17:13.291Z,32.25
2017-04-18T03:18:23.534Z,32.06
2017-04-18T03:19:33.463Z,32.15
2017-04-18T03:20:43.705Z,32.15
2017-04-18T03:21:53.949Z,31.96
2017-04-18T03:23:03.585Z,31.96
2017-04-18T03:24:13.509Z,31.96
2017-04-18T03:25:23.751Z,31.87
2017-04-18T03:26:33.992Z,31.96
2017-04-18T03:27:44.234Z,31.87
2017-04-18T03:28:54.480Z,31.67
2017-04-18T03:30:04.719Z,31.77
2017-04-18T03:31:14.959Z,32.06
2017-04-18T03:32:25.203Z,31.96
2017-04-18T03:33:35.184Z,32.06
2017-04-18T03:34:45.508Z,31.96
2017-04-18T03:35:56.021Z,31.67
2017-04-18T03:37:06.264Z,31.96
2017-04-18T03:38:15.729Z,31.96
2017-04-18T03:39:25.977Z,31.87
2017-04-18T03:40:36.217Z,31.77
2017-04-18T03:41:46.463Z,31.67
2017-04-18T03:42:56.414Z,31.87
2017-04-18T03:44:06.663Z,31.87
2017-04-18T03:45:16.910Z,31.77
2017-04-18T03:46:27.148Z,31.87
2017-04-18T03:47:37.075Z,31.87
2017-04-18T03:48:47.324Z,31.67
2017-04-18T03:49:57.255Z,31.57
2017-04-18T03:51:07.505Z,31.77
2017-04-18T03:52:17.750Z,31.87
2017-04-18T03:53:27.990Z,31.67
2017-04-18T03:54:37.608Z,31.48
2017-04-18T03:55:47.846Z,31.57
2017-04-18T03:56:57.782Z,31.57
2017-04-18T03:58:07.713Z,31.19
2017-04-18T03:59:17.960Z,31.67
2017-04-18T04:00:27.895Z,31.48
2017-04-18T04:01:37.818Z,31.48
2017-04-18T04:02:48.055Z,31.48
2017-04-18T04:03:58.294Z,31.67
2017-04-18T04:05:08.225Z,31.38
2017-04-18T04:06:18.462Z,31.48
2017-04-18T04:07:28.705Z,31.29
2017-04-18T04:08:38.320Z,31.09
2017-04-18T04:09:48.562Z,31.57
2017-04-18T04:10:58.489Z,31.48
2017-04-18T04:12:08.736Z,31.57
2017-04-18T04:13:18.659Z,30.9
2017-04-18T04:14:28.590Z,31.48
2017-04-18T04:15:38.241Z,31.48
2017-04-18T04:16:48.489Z,31.57
2017-04-18T04:17:58.412Z,31.48
2017-04-18T04:19:08.364Z,31.38
2017-04-18T04:20:18.326Z,31
2017-04-18T04:21:28.566Z,31.48
2017-04-18T04:22:38.813Z,31.57
2017-04-18T04:23:49.057Z,31.57
2017-04-18T04:24:59.299Z,31.57
2017-04-18T04:26:08.924Z,31.38
2017-04-18T04:27:18.853Z,31.57
2017-04-18T04:28:28.466Z,31.09
2017-04-18T04:29:38.084Z,31
2017-04-18T04:30:48.008Z,31.38
2017-04-18T04:31:57.937Z,31.48
2017-04-18T04:33:07.869Z,31.29
2017-04-18T04:34:18.114Z,31.57
2017-04-18T04:35:28.361Z,31.87
2017-04-18T04:36:38.610Z,31
2017-04-18T04:37:48.849Z,31.19
2017-04-18T04:38:59.085Z,31.19
2017-04-18T04:40:09.008Z,31.19
2017-04-18T04:41:19.247Z,31.48
2017-04-18T04:42:29.492Z,31.19
2017-04-18T04:43:39.418Z,31.09
2017-04-18T04:44:49.663Z,31
2017-04-18T04:45:59.586Z,31
2017-04-18T04:47:09.827Z,30.9
2017-04-18T04:48:20.062Z,31.09
2017-04-18T04:49:29.678Z,31.19
2017-04-18T04:50:39.607Z,31.19
2017-04-18T04:51:49.843Z,30.9
2017-04-18T04:52:59.785Z,30.9
2017-04-18T04:54:09.717Z,31.09
2017-04-18T04:55:19.646Z,31
2017-04-18T04:56:29.884Z,31
2017-04-18T04:57:39.813Z,31.48
2017-04-18T04:58:50.053Z,31.57
2017-04-18T04:59:59.703Z,31.38
2017-04-18T05:01:09.634Z,31.57
2017-04-18T05:02:19.884Z,31.38
2017-04-18T05:03:29.492Z,31.38
2017-04-18T05:04:39.733Z,31.57
2017-04-18T05:05:49.495Z,31.57
2017-04-18T05:06:59.416Z,31
2017-04-18T05:08:09.672Z,31.38
2017-04-18T05:09:19.911Z,31.19
2017-04-18T05:10:30.159Z,31
2017-04-18T05:11:40.404Z,31.09
2017-04-18T05:12:50.349Z,31.38
2017-04-18T05:14:00.702Z,31
2017-04-18T05:15:10.625Z,30.71
2017-04-18T05:16:20.871Z,30.9
2017-04-18T05:17:31.105Z,31.09
2017-04-18T05:18:41.375Z,31
2017-04-18T05:19:51.617Z,31
2017-04-18T05:21:01.857Z,31.38
2017-04-18T05:22:12.096Z,30.8
2017-04-18T05:23:21.712Z,31.09
2017-04-18T05:24:31.324Z,31
2017-04-18T05:25:41.566Z,30.61
2017-04-18T05:26:51.504Z,31
2017-04-18T05:28:01.750Z,30.61
2017-04-18T05:29:11.682Z,31
2017-04-18T05:30:21.927Z,31
2017-04-18T05:31:31.885Z,31
2017-04-18T05:32:41.806Z,30.9
2017-04-18T05:33:52.051Z,30.9
2017-04-18T05:35:02.314Z,31
2017-04-18T05:36:12.556Z,30.8
2017-04-18T05:37:22.793Z,30.8
2017-04-18T05:38:32.722Z,30.61
2017-04-18T05:39:42.660Z,30.71
2017-04-18T05:40:52.902Z,30.04
2017-04-18T05:42:03.140Z,30.52
2017-04-18T05:43:13.382Z,30.32
2017-04-18T05:44:23.631Z,30.04
2017-04-18T05:45:33.872Z,30.32
2017-04-18T05:46:44.117Z,30.32
2017-04-18T05:47:54.356Z,30.42
2017-04-18T05:49:04.598Z,30.8
2017-04-18T05:50:14.527Z,30.32
2017-04-18T05:51:24.142Z,30.42
2017-04-18T05:52:33.756Z,30.32
2017-04-18T05:53:43.996Z,30.52
2017-04-18T05:54:54.239Z,30.42
2017-04-18T05:56:04.477Z,30.42
2017-04-18T05:57:14.725Z,30.52
2017-04-18T05:58:24.338Z,30.42
2017-04-18T05:59:34.261Z,29.84
2017-04-18T06:00:44.499Z,30.22
2017-04-18T06:01:54.122Z,30.52
2017-04-18T06:03:04.042Z,30.42
2017-04-18T06:04:14.286Z,30.22
2017-04-18T06:05:24.526Z,30.32
2017-04-18T06:06:34.455Z,30.32
2017-04-18T06:07:44.378Z,29.94
2017-04-18T06:08:54.630Z,29.94
2017-04-18T06:10:04.872Z,30.04
2017-04-18T06:11:15.341Z,30.13
2017-04-18T06:12:24.953Z,29.84
2017-04-18T06:13:35.195Z,30.22
2017-04-18T06:14:45.183Z,30.22
2017-04-18T06:15:55.188Z,30.13
2017-04-18T06:17:05.452Z,30.32
2017-04-18T06:18:14.754Z,30.42
2017-04-18T06:19:24.993Z,30.42
2017-04-18T06:20:34.981Z,29.36
2017-04-18T06:21:44.992Z,29.65
2017-04-18T06:22:55.239Z,30.13
2017-04-18T06:24:05.477Z,30.04
2017-04-18T06:25:15.716Z,29.94
2017-04-18T06:26:25.956Z,29.46
2017-04-18T06:27:36.202Z,29.84
2017-04-18T06:28:46.132Z,29.94
2017-04-18T06:29:56.056Z,30.42
2017-04-18T06:31:05.359Z,30.22
2017-04-18T06:32:15.285Z,30.32
2017-04-18T06:33:25.520Z,30.04
2017-04-18T06:34:35.766Z,30.71
2017-04-18T06:35:46.003Z,30.61
2017-04-18T06:36:55.923Z,30.61
2017-04-18T06:38:05.853Z,30.63
2017-04-18T06:39:15.467Z,30.61
2017-04-18T06:40:25.396Z,30.73
2017-04-18T06:41:35.632Z,31.01
2017-04-18T06:42:45.552Z,30.73
2017-04-18T06:43:55.477Z,30.91
2017-04-18T06:45:05.713Z,31.11
2017-04-18T06:46:15.954Z,31.09
2017-04-18T06:47:26.194Z,31.01
2017-04-18T06:48:35.827Z,31.49
2017-04-18T06:49:45.761Z,30.82
2017-04-18T06:50:55.689Z,30.22
2017-04-18T06:52:05.930Z,30.71
2017-04-18T06:53:14.919Z,31.38
2017-04-18T06:54:25.154Z,31.21
2017-04-18T06:55:35.079Z,31.4
2017-04-18T06:56:44.697Z,31.69
2017-04-18T06:57:54.624Z,31.49
2017-04-18T06:59:04.869Z,31.69
2017-04-18T07:00:14.804Z,31.3
2017-04-18T07:01:24.730Z,31.98
2017-04-18T07:02:33.715Z,31.78
2017-04-18T07:03:43.332Z,31.78
2017-04-18T07:04:53.256Z,31.88
2017-04-18T07:06:03.526Z,31.69
2017-04-18T07:07:13.452Z,31.78
2017-04-18T07:08:23.386Z,31.98
2017-04-18T07:09:33.443Z,31.98
2017-04-18T07:10:43.685Z,31.78
2017-04-18T07:11:53.622Z,31.98
2017-04-18T07:13:02.344Z,32.17
2017-04-18T07:14:12.298Z,32.07
2017-04-18T07:15:22.665Z,32.07
2017-04-18T07:16:32.516Z,32.17
2017-04-18T07:17:43.024Z,32.17
2017-04-18T07:18:53.266Z,32.07
2017-04-18T07:20:03.196Z,32.36
2017-04-18T07:21:13.126Z,32.26
2017-04-18T07:22:22.428Z,32.75
2017-04-18T07:23:31.106Z,32.56
2017-04-18T07:24:40.720Z,31.21
2017-04-18T07:25:50.646Z,30.91
2017-04-18T07:27:00.263Z,31.77
2017-04-18T07:28:10.508Z,30.53
2017-04-18T07:29:20.444Z,29.46
2017-04-18T07:30:30.688Z,29.93
2017-04-18T07:31:40.304Z,30.31
2017-04-18T07:32:49.291Z,30.61
2017-04-18T07:33:58.297Z,31.96
2017-04-18T07:35:07.322Z,32.15
2017-04-18T07:36:17.253Z,32.15
2017-04-18T07:37:27.192Z,32.46
2017-04-18T07:38:37.130Z,32.36
2017-04-18T07:39:47.064Z,32.36
2017-04-18T07:40:56.674Z,32.46
2017-04-18T07:42:05.976Z,32.36
2017-04-18T07:43:14.960Z,32.75
2017-04-18T07:44:23.636Z,32.94
2017-04-18T07:45:32.310Z,32.94
2017-04-18T07:46:41.304Z,32.94
2017-04-18T07:47:50.924Z,33.13
2017-04-18T07:49:01.177Z,32.65
2017-04-18T07:50:11.105Z,32.65
2017-04-18T07:51:21.038Z,32.56
2017-04-18T07:52:30.026Z,32.94
2017-04-18T07:53:39.016Z,33.13
2017-04-18T07:54:48.713Z,32.94
2017-04-18T07:55:57.699Z,33.03
2017-04-18T07:57:06.371Z,33.03
2017-04-18T07:58:15.673Z,33.25
2017-04-18T07:59:25.596Z,33.23
2017-04-18T08:00:35.529Z,33.33
2017-04-18T08:01:45.458Z,33.33
2017-04-18T08:02:55.460Z,33.33
2017-04-18T08:04:05.385Z,32.86
2017-04-18T08:05:15.315Z,33.15
2017-04-18T08:06:25.244Z,33.34
2017-04-18T08:07:35.414Z,33.53
2017-04-18T08:08:45.042Z,33.63
2017-04-18T08:09:54.975Z,33.42
2017-04-18T08:11:04.909Z,33.71
2017-04-18T08:12:14.841Z,33.42
2017-04-18T08:13:24.774Z,33.33
2017-04-18T08:14:34.399Z,33.33
2017-04-18T08:15:44.339Z,33.33
2017-04-18T08:16:54.267Z,33.42
2017-04-18T08:18:04.198Z,33.33
2017-04-18T08:19:13.812Z,33.33
2017-04-18T08:20:23.740Z,33.51
2017-04-18T08:21:33.668Z,33.51
2017-04-18T08:22:43.596Z,33.61
2017-04-18T08:23:53.211Z,33.51
2017-04-18T08:25:02.831Z,33.33
2017-04-18T08:26:13.075Z,33.53
2017-04-18T08:27:22.691Z,33.51
2017-04-18T08:28:32.930Z,33.61
2017-04-18T08:29:42.858Z,34
2017-04-18T08:30:52.789Z,33.51
2017-04-18T08:32:02.713Z,33.61
2017-04-18T08:33:12.651Z,33.71
2017-04-18T08:34:22.898Z,33.61
2017-04-18T08:35:33.135Z,33.71
2017-04-18T08:36:43.076Z,33.51
2017-04-18T08:37:52.120Z,33.91
2017-04-18T08:39:02.049Z,33.91
2017-04-18T08:40:12.287Z,33.91
2017-04-18T08:41:21.902Z,33.51
2017-04-18T08:42:31.863Z,33.81
2017-04-18T08:43:42.108Z,33.82
2017-04-18T08:44:52.046Z,33.81
2017-04-18T08:46:01.660Z,34.09
2017-04-18T08:47:11.273Z,33.91
2017-04-18T08:48:21.520Z,33.91
2017-04-18T08:49:31.444Z,34
2017-04-18T08:50:41.684Z,33.91
2017-04-18T08:51:51.927Z,33.81
2017-04-18T08:53:01.847Z,33.71
2017-04-18T08:54:11.148Z,34.09
2017-04-18T08:55:20.549Z,34.09
2017-04-18T08:56:29.549Z,34.09
2017-04-18T08:57:38.850Z,34.09
2017-04-18T08:58:48.458Z,34
2017-04-18T08:59:58.085Z,34
2017-04-18T09:01:08.325Z,34.09
2017-04-18T09:02:17.938Z,34.29
2017-04-18T09:03:27.551Z,34.21
2017-04-18T09:04:37.165Z,33.91
2017-04-18T09:05:47.399Z,33.91
2017-04-18T09:06:57.333Z,34.19
2017-04-18T09:08:07.578Z,34.09
2017-04-18T09:09:17.500Z,34.09
2017-04-18T09:10:27.116Z,33.91
2017-04-18T09:11:37.044Z,34.19
2017-04-18T09:12:46.981Z,34.48
2017-04-18T09:13:56.281Z,34.38
2017-04-18T09:15:06.595Z,34.09
2017-04-18T09:16:16.560Z,33.91
2017-04-18T09:17:26.173Z,34.38
2017-04-18T09:18:36.415Z,34.29
2017-04-18T09:19:46.346Z,34.4
2017-04-18T09:20:56.582Z,34.38
2017-04-18T09:22:06.513Z,34.38
2017-04-18T09:23:16.760Z,34.29
2017-04-18T09:24:26.685Z,34.3
2017-04-18T09:25:36.614Z,34.21
2017-04-18T09:26:46.231Z,34.5
2017-04-18T09:27:55.533Z,34.38
2017-04-18T09:29:05.185Z,34.48
2017-04-18T09:30:15.449Z,34.3
2017-04-18T09:31:25.060Z,34.59
2017-04-18T09:32:35.304Z,34.67
2017-04-18T09:33:45.236Z,34.38
2017-04-18T09:34:55.483Z,34.19
2017-04-18T09:36:05.418Z,34.67
2017-04-18T09:37:14.716Z,34.59
2017-04-18T09:38:24.645Z,34.67
2017-04-18T09:39:34.263Z,34.4
2017-04-18T09:40:44.192Z,34.67
2017-04-18T09:41:54.117Z,34.29
2017-04-18T09:43:04.356Z,34.48
2017-04-18T09:44:14.599Z,34.48
2017-04-18T09:45:24.531Z,34.4
2017-04-18T09:46:33.830Z,34.59
2017-04-18T09:47:43.755Z,34.5
2017-04-18T09:48:53.687Z,34.59
2017-04-18T09:50:03.941Z,34.4
2017-04-18T09:51:13.548Z,34.69
2017-04-18T09:52:23.158Z,34.77
2017-04-18T09:53:33.116Z,34.86
2017-04-18T09:54:43.048Z,34.98
2017-04-18T09:55:52.973Z,34.69
2017-04-18T09:57:02.585Z,34.88
2017-04-18T09:58:12.521Z,34.88
2017-04-18T09:59:22.769Z,34.78
2017-04-18T10:00:33.003Z,34.38
2017-04-18T10:01:42.927Z,34.78
2017-04-18T10:02:53.163Z,34.67
2017-04-18T10:04:03.094Z,34.5
2017-04-18T10:05:13.339Z,34.69
2017-04-18T10:06:23.267Z,34.78
2017-04-18T10:07:32.572Z,34.78
2017-04-18T10:08:42.815Z,34.69
2017-04-18T10:09:52.740Z,34.69
2017-04-18T10:11:03.001Z,34.67
2017-04-18T10:12:13.238Z,34.78
2017-04-18T10:13:23.161Z,34.88
2017-04-18T10:14:32.784Z,34.78
2017-04-18T10:15:42.397Z,34.69
2017-04-18T10:16:52.661Z,34.88
2017-04-18T10:18:02.587Z,34.78
2017-04-18T10:19:12.560Z,34.77
2017-04-18T10:20:22.539Z,34.98
2017-04-18T10:21:32.398Z,34.69
2017-04-18T10:22:42.028Z,34.78
2017-04-18T10:23:51.954Z,34.88
2017-04-18T10:25:01.882Z,34.69
2017-04-18T10:26:11.810Z,34.98
2017-04-18T10:27:21.757Z,34.96
2017-04-18T10:28:31.708Z,34.69
2017-04-18T10:29:41.955Z,34.98
2017-04-18T10:30:52.190Z,34.96
2017-04-18T10:32:01.806Z,34.69
2017-04-18T10:33:12.048Z,34.88
2017-04-18T10:34:22.290Z,34.78
2017-04-18T10:35:31.906Z,35.08
2017-04-18T10:36:41.837Z,34.86
2017-04-18T10:37:51.762Z,34.67
2017-04-18T10:39:01.694Z,34.78
2017-04-18T10:40:11.615Z,34.78
2017-04-18T10:41:21.237Z,34.86
2017-04-18T10:42:31.481Z,34.88
2017-04-18T10:43:41.718Z,35.27
2017-04-18T10:44:51.651Z,35.17
2017-04-18T10:46:01.275Z,35.06
2017-04-18T10:47:11.510Z,35.25
2017-04-18T10:48:20.498Z,34.98
2017-04-18T10:49:30.443Z,35.17
2017-04-18T10:50:40.374Z,35.16
2017-04-18T10:51:50.301Z,35.17
2017-04-18T10:53:00.223Z,35.36
2017-04-18T10:54:10.473Z,35.27
2017-04-18T10:55:20.402Z,35.17
2017-04-18T10:56:30.328Z,35.27
2017-04-18T10:57:40.328Z,35.17
2017-04-18T10:58:50.230Z,35.08
2017-04-18T11:00:00.114Z,35.17
2017-04-18T11:01:10.056Z,35.27
2017-04-18T11:02:19.979Z,35.17
2017-04-18T11:03:29.282Z,35.27
2017-04-18T11:04:39.523Z,35.27
2017-04-18T11:05:49.456Z,35.46
2017-04-18T11:06:59.698Z,35.36
2017-04-18T11:08:09.973Z,35.08
2017-04-18T11:09:19.591Z,35.46
2017-04-18T11:10:28.887Z,35.27
2017-04-18T11:11:38.813Z,35.08
2017-04-18T11:12:47.492Z,35.36
2017-04-18T11:13:57.743Z,35.46
2017-04-18T11:15:07.359Z,35.36
2017-04-18T11:16:17.283Z,35.27
2017-04-18T11:17:27.212Z,35.56
2017-04-18T11:18:37.140Z,35.27
2017-04-18T11:19:47.066Z,35.46
2017-04-18T11:20:56.687Z,35.56
2017-04-18T11:22:06.935Z,35.46
2017-04-18T11:23:16.546Z,35.46
2017-04-18T11:24:26.786Z,35.17
2017-04-18T11:25:37.025Z,35.36
2017-04-18T11:26:47.270Z,35.36
2017-04-18T11:27:56.884Z,35.36
2017-04-18T11:29:06.495Z,35.65
2017-04-18T11:30:15.806Z,35.36
2017-04-18T11:31:25.420Z,35.46
2017-04-18T11:32:35.668Z,35.56
2017-04-18T11:33:45.603Z,35.56
2017-04-18T11:34:55.850Z,35.65
2017-04-18T11:36:05.147Z,35.56
2017-04-18T11:37:15.107Z,35.65
2017-04-18T11:38:24.848Z,35.56
2017-04-18T11:39:34.779Z,35.27
2017-04-18T11:40:44.706Z,35.75
2017-04-18T11:41:54.046Z,35.65
2017-04-18T11:43:03.978Z,35.65
2017-04-18T11:44:14.217Z,35.65
2017-04-18T11:45:23.840Z,35.65
2017-04-18T11:46:34.080Z,35.56
2017-04-18T11:47:44.326Z,35.36
2017-04-18T11:48:53.947Z,35.65
2017-04-18T11:50:04.196Z,35.65
2017-04-18T11:51:14.442Z,35.65
2017-04-18T11:52:24.057Z,35.56
2017-04-18T11:53:33.986Z,35.56
2017-04-18T11:54:43.626Z,35.65
2017-04-18T11:55:53.568Z,35.27
2017-04-18T11:57:03.805Z,35.65
2017-04-18T11:58:13.426Z,35.17
2017-04-18T11:59:23.043Z,35.27
2017-04-18T12:00:32.974Z,35.16
2017-04-18T12:01:42.898Z,35.27
2017-04-18T12:02:53.150Z,35.65
2017-04-18T12:04:02.780Z,35.27
2017-04-18T12:05:13.026Z,35.17
2017-04-18T12:06:22.330Z,35.56
2017-04-18T12:07:32.569Z,35.65
2017-04-18T12:08:42.178Z,35.65
2017-04-18T12:09:51.794Z,35.27
2017-04-18T12:11:01.723Z,35.65
2017-04-18T12:12:11.343Z,35.65
2017-04-18T12:13:20.767Z,35.46
2017-04-18T12:14:31.138Z,35.65
2017-04-18T12:15:40.758Z,35.46
2017-04-18T12:16:51.044Z,35.27
2017-04-18T12:18:01.146Z,34.78
2017-04-18T12:19:10.756Z,34.98
2017-04-18T12:20:20.479Z,34.88
2017-04-18T12:21:30.404Z,34.59
2017-04-18T12:22:40.641Z,35.08
2017-04-18T12:23:50.571Z,34.98
2017-04-18T12:25:00.803Z,34.78
2017-04-18T12:26:10.411Z,35.08
2017-04-18T12:27:20.346Z,34.69
2017-04-18T12:28:30.269Z,34.98
2017-04-18T12:29:39.575Z,35.17
2017-04-18T12:30:49.812Z,35.27
2017-04-18T12:31:59.740Z,35.08
2017-04-18T12:33:09.354Z,35.17
2017-04-18T12:34:18.964Z,35.17
2017-04-18T12:35:29.217Z,35.08
2017-04-18T12:36:39.461Z,35.27
2017-04-18T12:37:49.394Z,35.27
2017-04-18T12:38:59.322Z,35.36
2017-04-18T12:40:09.541Z,35.56
2017-04-18T12:41:19.471Z,35.56
2017-04-18T12:42:29.096Z,35.36
2017-04-18T12:43:39.334Z,35.27
2017-04-18T12:44:49.258Z,35.36
2017-04-18T12:45:58.870Z,35.36
2017-04-18T12:47:08.799Z,35.36
2017-04-18T12:48:18.098Z,35.65
2017-04-18T12:49:27.714Z,35.36
2017-04-18T12:50:37.110Z,35.46
2017-04-18T12:51:47.349Z,35.56
2017-04-18T12:52:57.282Z,35.65
2017-04-18T12:54:06.898Z,35.65
2017-04-18T12:55:16.822Z,35.27
2017-04-18T12:56:26.775Z,35.36
2017-04-18T12:57:36.397Z,35.65
2017-04-18T12:58:46.008Z,35.75
2017-04-18T12:59:55.305Z,35.08
2017-04-18T13:01:04.922Z,35.65
2017-04-18T13:02:14.532Z,35.17
2017-04-18T13:03:23.834Z,35.36
2017-04-18T13:04:34.085Z,35.36
2017-04-18T13:05:43.717Z,35.36
2017-04-18T13:06:53.328Z,35.85
2017-04-18T13:08:03.568Z,35.27
2017-04-18T13:09:13.496Z,35.27
2017-04-18T13:10:22.791Z,35.17
2017-04-18T13:11:31.778Z,35.27
2017-04-18T13:12:41.713Z,35.17
2017-04-18T13:13:51.013Z,35.85
2017-04-18T13:15:00.967Z,35.75
2017-04-18T13:16:11.202Z,35.46
2017-04-18T13:17:20.498Z,35.56
2017-04-18T13:18:30.735Z,35.75
2017-04-18T13:19:40.363Z,35.75
2017-04-18T13:20:50.134Z,35.75
2017-04-18T13:21:59.793Z,35.85
2017-04-18T13:23:09.513Z,35.75
2017-04-18T13:24:19.129Z,35.75
2017-04-18T13:25:29.046Z,35.85
2017-04-18T13:26:38.970Z,35.65
2017-04-18T13:27:48.902Z,35.56
2017-04-18T13:28:58.830Z,35.75
2017-04-18T13:30:08.757Z,35.65
2017-04-18T13:31:18.369Z,35.85
2017-04-18T13:32:28.294Z,35.75
2017-04-18T13:33:37.289Z,35.85
2017-04-18T13:34:46.593Z,35.65
2017-04-18T13:35:56.204Z,35.85
2017-04-18T13:37:06.134Z,35.65
2017-04-18T13:38:16.060Z,35.94
2017-04-18T13:39:25.989Z,35.85
2017-04-18T13:40:35.918Z,35.94
2017-04-18T13:41:46.163Z,35.94
2017-04-18T13:42:56.085Z,36.04
2017-04-18T13:44:05.075Z,35.94
2017-04-18T13:45:14.396Z,35.85
2017-04-18T13:46:23.085Z,35.75
2017-04-18T13:47:33.022Z,35.85
2017-04-18T13:48:42.633Z,36.04
2017-04-18T13:49:52.247Z,35.94
2017-04-18T13:51:02.171Z,36.04
2017-04-18T13:52:12.101Z,36.04
2017-04-18T13:53:21.090Z,35.94
2017-04-18T13:54:30.085Z,35.94
2017-04-18T13:55:39.400Z,36.04
2017-04-18T13:56:48.450Z,36.04
2017-04-18T13:57:57.473Z,35.94
2017-04-18T13:59:07.710Z,35.94
2017-04-18T14:00:17.638Z,35.85
2017-04-18T14:01:27.886Z,36.04
2017-04-18T14:02:37.826Z,36.04
2017-04-18T14:03:46.809Z,36.04
2017-04-18T14:04:56.111Z,36.23
2017-04-18T14:06:06.053Z,36.13
2017-04-18T14:07:15.666Z,36.04
2017-04-18T14:08:24.673Z,36.04
2017-04-18T14:09:34.000Z,36.04
2017-04-18T14:10:43.927Z,35.94
2017-04-18T14:11:54.163Z,36.04
2017-04-18T14:13:04.603Z,36.04
2017-04-18T14:14:14.528Z,36.23
2017-04-18T14:15:24.479Z,35.94
2017-04-18T14:16:34.718Z,36.04
2017-04-18T14:17:44.963Z,35.94
2017-04-18T14:18:54.894Z,35.85
2017-04-18T14:20:05.130Z,35.75
2017-04-18T14:21:15.385Z,36.04
2017-04-18T14:22:25.632Z,36.04
2017-04-18T14:23:35.559Z,36.23
2017-04-18T14:24:45.793Z,35.75
2017-04-18T14:25:55.772Z,36.13
2017-04-18T14:27:06.056Z,35.85
2017-04-18T14:28:15.982Z,35.85
2017-04-18T14:29:25.937Z,35.85
2017-04-18T14:30:35.866Z,35.94
2017-04-18T14:31:46.101Z,35.75
2017-04-18T14:32:55.718Z,36.13
2017-04-18T14:34:05.333Z,35.94
2017-04-18T14:35:15.577Z,35.85
2017-04-18T14:36:25.504Z,36.23
2017-04-18T14:37:35.737Z,36.13
2017-04-18T14:38:45.975Z,36.13
2017-04-18T14:39:56.211Z,36.23
2017-04-18T14:41:06.145Z,36.13
2017-04-18T14:42:16.073Z,36.23
2017-04-18T14:43:26.308Z,36.13
2017-04-18T14:44:35.922Z,36.13
2017-04-18T14:45:45.850Z,36.23
2017-04-18T14:46:55.783Z,36.33
2017-04-18T14:48:05.711Z,36.13
2017-04-18T14:49:15.658Z,36.23
2017-04-18T14:50:25.901Z,36.23
2017-04-18T14:51:36.144Z,36.23
2017-04-18T14:52:46.096Z,36.43
2017-04-18T14:53:56.041Z,36.23
2017-04-18T14:55:05.650Z,34.4
2017-04-18T14:56:15.899Z,32.36
2017-04-18T14:57:26.137Z,29.94
2017-04-18T14:58:36.443Z,31.27
2017-04-18T14:59:46.685Z,31.95
2017-04-18T15:00:56.293Z,33.02
2017-04-18T15:02:05.920Z,32.73
2017-04-18T15:03:16.175Z,32.73
2017-04-18T15:04:26.101Z,33.31
2017-04-18T15:05:36.031Z,33.69